createdAt,value
2018-03-31T00:01:29.831Z,5.50
2018-03-31T00:03:56.970Z,5.50
2018-03-31T00:06:24.093Z,5.50
2018-03-31T00:08:51.298Z,5.50
2018-03-31T00:11:19.184Z,5.40
2018-03-31T00:13:46.305Z,5.40
2018-03-31T00:16:13.435Z,5.40
2018-03-31T00:18:40.537Z,5.30
2018-03-31T00:21:07.612Z,5.20
2018-03-31T00:23:34.751Z,5.20
2018-03-31T00:26:01.836Z,5.10
2018-03-31T00:28:28.966Z,5.00
2018-03-31T00:30:56.054Z,5.00
2018-03-31T00:33:23.152Z,4.90
2018-03-31T00:35:50.323Z,4.90
2018-03-31T00:38:17.442Z,4.80
2018-03-31T00:40:44.586Z,4.80
2018-03-31T00:43:11.857Z,4.70
2018-03-31T00:45:38.966Z,4.70
2018-03-31T00:48:06.196Z,4.70
2018-03-31T00:50:33.279Z,4.70
2018-03-31T00:53:01.155Z,4.70
2018-03-31T00:55:28.381Z,4.60
2018-03-31T00:57:56.324Z,4.60
2018-03-31T01:00:23.415Z,4.60
2018-03-31T01:02:50.504Z,4.70
2018-03-31T01:05:17.630Z,4.70
2018-03-31T01:07:44.827Z,4.70
2018-03-31T01:10:11.921Z,4.70
2018-03-31T01:12:39.803Z,4.70
2018-03-31T01:15:06.893Z,4.70
2018-03-31T01:17:34.198Z,4.70
2018-03-31T01:20:01.282Z,4.70
2018-03-31T01:22:28.587Z,4.70
2018-03-31T01:24:56.507Z,4.70
2018-03-31T01:27:24.407Z,4.70
2018-03-31T01:29:51.509Z,4.60
2018-03-31T01:32:18.656Z,4.60
2018-03-31T01:34:45.732Z,4.60
2018-03-31T01:37:12.807Z,4.50
2018-03-31T01:39:40.078Z,4.50
2018-03-31T01:42:07.955Z,4.40
2018-03-31T01:44:35.074Z,4.40
2018-03-31T01:47:02.170Z,4.30
2018-03-31T01:49:29.280Z,4.30
2018-03-31T01:51:56.389Z,4.30
2018-03-31T01:54:23.518Z,4.30
2018-03-31T01:56:50.636Z,4.30
2018-03-31T01:59:18.482Z,4.20
2018-03-31T02:01:45.598Z,4.20
2018-03-31T02:04:12.826Z,4.20
2018-03-31T02:06:39.962Z,4.20
2018-03-31T02:09:07.800Z,4.20
2018-03-31T02:11:34.999Z,4.20
2018-03-31T02:14:02.110Z,4.20
2018-03-31T02:16:29.379Z,4.10
2018-03-31T02:18:56.458Z,4.20
2018-03-31T02:21:23.568Z,4.10
2018-03-31T02:23:50.728Z,4.10
2018-03-31T02:26:18.575Z,4.10
2018-03-31T02:28:45.659Z,4.10
2018-03-31T02:31:13.535Z,4.10
2018-03-31T02:33:40.673Z,4.10
2018-03-31T02:36:07.795Z,4.10
2018-03-31T02:38:34.914Z,4.10
2018-03-31T02:41:02.009Z,4.10
2018-03-31T02:43:29.890Z,4.10
2018-03-31T02:45:57.730Z,4.10
2018-03-31T02:48:24.852Z,4.10
2018-03-31T02:50:51.976Z,4.10
2018-03-31T02:53:19.135Z,4.10
2018-03-31T02:55:46.267Z,4.10
2018-03-31T02:58:13.342Z,4.00
2018-03-31T03:00:40.472Z,4.00
2018-03-31T03:03:07.577Z,3.90
2018-03-31T03:05:34.697Z,3.90
2018-03-31T03:08:01.873Z,3.90
2018-03-31T03:10:28.947Z,3.90
2018-03-31T03:12:56.063Z,3.90
2018-03-31T03:15:23.928Z,3.90
2018-03-31T03:17:51.065Z,3.90
2018-03-31T03:20:18.203Z,3.90
2018-03-31T03:22:45.283Z,3.90
2018-03-31T03:25:12.454Z,4.00
2018-03-31T03:27:39.534Z,4.00
2018-03-31T03:30:06.636Z,4.00
2018-03-31T03:32:33.763Z,4.00
2018-03-31T03:35:00.842Z,4.10
2018-03-31T03:37:28.035Z,4.10
2018-03-31T03:39:55.159Z,4.10
2018-03-31T03:42:23.018Z,4.10
2018-03-31T03:44:50.174Z,4.10
2018-03-31T03:47:17.342Z,4.10
2018-03-31T03:49:44.459Z,4.10
2018-03-31T03:52:11.552Z,4.20
2018-03-31T03:54:38.669Z,4.10
2018-03-31T03:57:05.810Z,4.10
2018-03-31T03:59:32.900Z,4.10
2018-03-31T04:02:00.759Z,4.20
2018-03-31T04:04:28.835Z,4.20
2018-03-31T04:06:56.796Z,4.20
2018-03-31T04:09:24.047Z,4.20
2018-03-31T04:11:51.895Z,4.20
2018-03-31T04:14:19.013Z,4.20
2018-03-31T04:16:46.146Z,4.20
2018-03-31T04:19:13.344Z,4.20
2018-03-31T04:21:40.466Z,4.20
2018-03-31T04:24:07.661Z,4.20
2018-03-31T04:26:35.606Z,4.20
2018-03-31T04:29:02.759Z,4.20
2018-03-31T04:31:29.852Z,4.10
2018-03-31T04:33:56.979Z,4.10
2018-03-31T04:36:24.198Z,4.20
2018-03-31T04:38:51.316Z,4.10
2018-03-31T04:41:18.543Z,4.20
2018-03-31T04:43:46.408Z,4.20
2018-03-31T04:46:14.250Z,4.20
2018-03-31T04:48:41.374Z,4.10
2018-03-31T04:51:08.476Z,4.20
2018-03-31T04:53:35.603Z,4.10
2018-03-31T04:56:02.787Z,4.20
2018-03-31T04:58:29.910Z,4.20
2018-03-31T05:00:56.998Z,4.20
2018-03-31T05:03:24.123Z,4.20
2018-03-31T05:05:52.039Z,4.20
2018-03-31T05:08:19.361Z,4.20
2018-03-31T05:10:47.252Z,4.20
2018-03-31T05:13:14.336Z,4.20
2018-03-31T05:15:41.416Z,4.20
2018-03-31T05:18:09.313Z,4.30
2018-03-31T05:20:36.408Z,4.30
2018-03-31T05:23:03.658Z,4.30
2018-03-31T05:25:30.966Z,4.30
2018-03-31T05:27:58.158Z,4.30
2018-03-31T05:30:25.278Z,4.30
2018-03-31T05:32:52.544Z,4.30
2018-03-31T05:35:19.676Z,4.30
2018-03-31T05:37:46.783Z,4.30
2018-03-31T05:40:13.904Z,4.30
2018-03-31T05:42:41.022Z,4.30
2018-03-31T05:45:08.154Z,4.40
2018-03-31T05:47:35.996Z,4.30
2018-03-31T05:50:03.082Z,4.30
2018-03-31T05:52:30.231Z,4.30
2018-03-31T05:54:57.324Z,4.30
2018-03-31T05:57:24.567Z,4.30
2018-03-31T05:59:51.688Z,4.30
2018-03-31T06:02:18.778Z,4.30
2018-03-31T06:04:45.900Z,4.30
2018-03-31T06:07:12.984Z,4.30
2018-03-31T06:09:40.186Z,4.30
2018-03-31T06:12:07.314Z,4.30
2018-03-31T06:14:34.446Z,4.40
2018-03-31T06:17:01.544Z,4.40
2018-03-31T06:19:28.672Z,4.40
2018-03-31T06:21:55.809Z,4.50
2018-03-31T06:24:22.923Z,4.50
2018-03-31T06:26:50.008Z,4.50
2018-03-31T06:29:17.142Z,4.60
2018-03-31T06:31:44.291Z,4.60
2018-03-31T06:34:11.369Z,4.60
2018-03-31T06:36:38.486Z,4.60
2018-03-31T06:39:05.568Z,4.60
2018-03-31T06:41:32.688Z,4.70
2018-03-31T06:43:59.815Z,4.70
2018-03-31T06:46:26.975Z,4.70
2018-03-31T06:48:54.069Z,4.70
2018-03-31T06:51:21.963Z,4.70
2018-03-31T06:53:49.038Z,4.70
2018-03-31T06:56:16.158Z,4.70
2018-03-31T06:58:43.234Z,4.70
2018-03-31T07:01:10.355Z,4.70
2018-03-31T07:03:37.489Z,4.70
2018-03-31T07:06:05.381Z,4.70
2018-03-31T07:08:32.530Z,4.70
2018-03-31T07:10:59.654Z,4.70
2018-03-31T07:13:27.551Z,4.70
2018-03-31T07:15:54.661Z,4.70
2018-03-31T07:18:21.773Z,4.70
2018-03-31T07:20:48.959Z,4.80
2018-03-31T07:23:16.043Z,4.80
2018-03-31T07:25:43.118Z,4.90
2018-03-31T07:28:10.372Z,5.00
2018-03-31T07:30:37.443Z,5.10
2018-03-31T07:33:04.656Z,5.20
2018-03-31T07:35:31.846Z,5.30
2018-03-31T07:37:58.964Z,5.40
2018-03-31T07:40:26.046Z,5.50
2018-03-31T07:42:53.167Z,5.60
2018-03-31T07:45:20.251Z,5.70
2018-03-31T07:47:47.386Z,5.70
2018-03-31T07:50:14.500Z,5.80
2018-03-31T07:52:41.650Z,5.80
2018-03-31T07:55:08.725Z,5.80
2018-03-31T07:57:35.825Z,5.80
2018-03-31T08:00:03.786Z,5.80
2018-03-31T08:02:30.950Z,5.80
2018-03-31T08:04:58.830Z,5.90
2018-03-31T08:07:25.966Z,5.90
2018-03-31T08:09:53.902Z,6.10
2018-03-31T08:12:21.069Z,6.10
2018-03-31T08:14:48.239Z,6.10
2018-03-31T08:17:16.214Z,6.30
2018-03-31T08:19:44.107Z,6.30
2018-03-31T08:22:11.184Z,6.30
2018-03-31T08:24:39.274Z,6.40
2018-03-31T08:27:06.332Z,6.40
2018-03-31T08:29:33.450Z,6.50
2018-03-31T08:32:00.663Z,6.60
2018-03-31T08:34:27.882Z,6.60
2018-03-31T08:36:57.004Z,6.60
2018-03-31T08:39:24.214Z,6.70
2018-03-31T08:41:51.330Z,6.80
2018-03-31T08:44:18.412Z,6.90
2018-03-31T08:46:45.600Z,7.00
2018-03-31T08:49:13.484Z,7.10
2018-03-31T08:51:40.563Z,7.10
2018-03-31T08:54:07.709Z,7.20
2018-03-31T08:56:34.888Z,7.40
2018-03-31T08:59:02.010Z,7.40
2018-03-31T09:01:29.220Z,7.50
2018-03-31T09:03:56.362Z,7.60
2018-03-31T09:06:23.615Z,7.60
2018-03-31T09:08:50.695Z,7.60
2018-03-31T09:11:17.832Z,7.70
2018-03-31T09:13:44.952Z,7.70
2018-03-31T09:16:12.040Z,7.80
2018-03-31T09:18:39.176Z,7.90
2018-03-31T09:21:07.066Z,8.20
2018-03-31T09:23:34.199Z,8.20
2018-03-31T09:26:01.414Z,8.20
2018-03-31T09:28:28.633Z,8.20
2018-03-31T09:30:55.905Z,8.30
2018-03-31T09:33:22.990Z,8.30
2018-03-31T09:35:50.834Z,8.20
2018-03-31T09:38:17.956Z,8.20
2018-03-31T09:40:45.108Z,8.20
2018-03-31T09:43:12.227Z,8.10
2018-03-31T09:45:39.306Z,8.10
2018-03-31T09:48:06.484Z,8.20
2018-03-31T09:50:33.612Z,8.20
2018-03-31T09:53:00.709Z,8.20
2018-03-31T09:55:27.792Z,8.30
2018-03-31T09:57:55.039Z,8.30
2018-03-31T10:00:27.730Z,8.40
2018-03-31T10:02:54.938Z,8.30
2018-03-31T10:05:22.786Z,8.50
2018-03-31T10:07:49.951Z,8.50
2018-03-31T10:10:17.036Z,8.60
2018-03-31T10:12:44.186Z,8.70
2018-03-31T10:15:11.264Z,8.90
2018-03-31T10:17:38.386Z,9.00
2018-03-31T10:20:05.496Z,9.20
2018-03-31T10:22:32.654Z,9.40
2018-03-31T10:24:59.770Z,9.40
2018-03-31T10:27:26.877Z,9.50
2018-03-31T10:29:53.976Z,9.50
2018-03-31T10:32:21.090Z,9.60
2018-03-31T10:34:48.169Z,9.80
2018-03-31T10:37:15.297Z,10.10
2018-03-31T10:39:42.434Z,10.30
2018-03-31T10:42:09.536Z,10.30
2018-03-31T10:44:36.628Z,10.30
2018-03-31T10:47:03.742Z,10.20
2018-03-31T10:49:30.831Z,10.30
2018-03-31T10:51:57.967Z,10.20
2018-03-31T10:54:25.811Z,10.30
2018-03-31T10:56:52.900Z,10.30
2018-03-31T10:59:20.019Z,10.30
2018-03-31T11:01:48.038Z,10.30
2018-03-31T11:04:15.146Z,10.30
2018-03-31T11:06:43.039Z,10.00
2018-03-31T11:09:10.126Z,10.00
2018-03-31T11:11:37.204Z,10.20
2018-03-31T11:14:04.318Z,10.40
2018-03-31T11:16:31.452Z,10.60
2018-03-31T11:18:58.536Z,10.80
2018-03-31T11:21:25.619Z,11.00
2018-03-31T11:23:53.508Z,11.10
2018-03-31T11:26:20.599Z,11.10
2018-03-31T11:28:47.720Z,10.90
2018-03-31T11:31:14.847Z,10.90
2018-03-31T11:33:41.924Z,11.00
2018-03-31T11:36:09.042Z,11.00
2018-03-31T11:38:36.120Z,10.90
2018-03-31T11:41:03.242Z,10.90
2018-03-31T11:43:30.324Z,10.90
2018-03-31T11:45:57.402Z,10.70
2018-03-31T11:48:24.516Z,10.60
2018-03-31T11:50:51.609Z,10.50
2018-03-31T11:53:18.727Z,10.30
2018-03-31T11:55:45.808Z,10.30
2018-03-31T11:58:12.934Z,10.30
2018-03-31T12:00:40.074Z,10.10
2018-03-31T12:03:07.211Z,10.00
2018-03-31T12:05:34.290Z,9.90
2018-03-31T12:08:01.375Z,9.90
2018-03-31T12:10:29.262Z,10.10
2018-03-31T12:12:56.383Z,10.10
2018-03-31T12:15:24.266Z,10.50
2018-03-31T12:17:52.110Z,10.70
2018-03-31T12:20:19.235Z,10.60
2018-03-31T12:22:46.355Z,10.80
2018-03-31T12:25:13.440Z,10.90
2018-03-31T12:27:40.549Z,10.80
2018-03-31T12:30:07.631Z,10.70
2018-03-31T12:32:34.873Z,10.60
2018-03-31T12:35:01.959Z,10.30
2018-03-31T12:37:29.109Z,10.40
2018-03-31T12:39:56.182Z,10.80
2018-03-31T12:42:24.081Z,11.30
2018-03-31T12:44:51.203Z,11.30
2018-03-31T12:47:18.368Z,11.50
2018-03-31T12:49:46.208Z,11.90
2018-03-31T12:52:13.401Z,11.90
2018-03-31T12:54:40.431Z,12.00
2018-03-31T12:57:07.515Z,12.00
2018-03-31T12:59:34.649Z,12.10
2018-03-31T13:02:01.735Z,12.00
2018-03-31T13:04:28.873Z,11.90
2018-03-31T13:06:56.005Z,11.60
2018-03-31T13:09:23.134Z,11.30
2018-03-31T13:11:50.277Z,11.20
2018-03-31T13:14:17.390Z,11.30
2018-03-31T13:16:44.531Z,11.20
2018-03-31T13:19:11.621Z,11.00
2018-03-31T13:21:39.506Z,11.00
2018-03-31T13:24:06.619Z,11.00
2018-03-31T13:26:33.750Z,10.90
2018-03-31T13:29:00.873Z,10.80
2018-03-31T13:31:28.051Z,10.90
2018-03-31T13:33:55.136Z,11.00
2018-03-31T13:36:22.977Z,11.20
2018-03-31T13:38:50.129Z,11.10
2018-03-31T13:41:18.746Z,11.20
2018-03-31T13:43:45.963Z,11.00
2018-03-31T13:46:13.094Z,10.90
2018-03-31T13:48:40.200Z,10.80
2018-03-31T13:51:07.318Z,10.60
2018-03-31T13:53:34.443Z,10.50
2018-03-31T13:56:01.591Z,10.40
2018-03-31T13:58:28.857Z,10.30
2018-03-31T14:00:56.011Z,10.30
2018-03-31T14:03:23.165Z,10.30
2018-03-31T14:05:50.314Z,10.30
2018-03-31T14:08:17.400Z,10.30
2018-03-31T14:10:45.243Z,10.20
2018-03-31T14:13:12.366Z,10.20
2018-03-31T14:15:39.459Z,10.20
2018-03-31T14:18:06.600Z,10.00
2018-03-31T14:20:34.449Z,9.60
2018-03-31T14:23:01.572Z,9.60
2018-03-31T14:25:28.692Z,9.40
2018-03-31T14:27:55.809Z,9.30
2018-03-31T14:30:22.884Z,9.10
2018-03-31T14:32:50.059Z,9.00
2018-03-31T14:35:17.166Z,8.90
2018-03-31T14:37:44.244Z,8.90
2018-03-31T14:40:11.404Z,9.00
2018-03-31T14:42:38.528Z,9.10
2018-03-31T14:45:06.359Z,9.20
2018-03-31T14:47:35.713Z,9.10
2018-03-31T14:50:02.998Z,9.20
2018-03-31T14:52:30.080Z,9.10
2018-03-31T14:54:57.209Z,9.10
2018-03-31T14:57:24.318Z,9.10
2018-03-31T14:59:51.466Z,9.00
2018-03-31T15:02:18.583Z,9.00
2018-03-31T15:04:45.724Z,9.00
2018-03-31T15:07:12.802Z,8.90
2018-03-31T15:09:40.706Z,8.70
2018-03-31T15:12:07.921Z,8.70
2018-03-31T15:14:35.798Z,8.60
2018-03-31T15:17:02.976Z,8.60
2018-03-31T15:19:30.122Z,8.50
2018-03-31T15:21:57.251Z,8.40
2018-03-31T15:24:24.532Z,8.30
2018-03-31T15:26:51.727Z,8.20
2018-03-31T15:29:19.593Z,8.10
2018-03-31T15:31:46.710Z,8.10
2018-03-31T15:34:15.349Z,8.10
2018-03-31T15:36:43.245Z,8.00
2018-03-31T15:39:10.382Z,8.00
2018-03-31T15:41:37.503Z,8.00
2018-03-31T15:44:04.675Z,8.10
2018-03-31T15:46:31.788Z,8.10
2018-03-31T15:48:58.903Z,8.00
2018-03-31T15:51:25.991Z,7.90
2018-03-31T15:53:53.116Z,7.80
2018-03-31T15:56:20.194Z,7.80
2018-03-31T15:58:47.319Z,7.80
2018-03-31T16:01:14.390Z,7.70
2018-03-31T16:03:41.523Z,7.70
2018-03-31T16:06:08.624Z,7.70
2018-03-31T16:08:36.475Z,7.60
2018-03-31T16:11:03.608Z,7.60
2018-03-31T16:13:30.715Z,7.60
2018-03-31T16:15:57.804Z,7.50
2018-03-31T16:18:24.926Z,7.40
2018-03-31T16:20:52.045Z,7.40
2018-03-31T16:23:19.113Z,7.40
2018-03-31T16:25:46.573Z,7.30
2018-03-31T16:28:13.676Z,7.30
2018-03-31T16:30:40.827Z,7.20
2018-03-31T16:33:07.907Z,7.10
2018-03-31T16:35:34.995Z,7.10
2018-03-31T16:38:02.122Z,7.00
2018-03-31T16:40:29.243Z,6.90
2018-03-31T16:42:57.123Z,6.80
2018-03-31T16:45:24.230Z,6.80
2018-03-31T16:47:51.462Z,6.80
2018-03-31T16:50:18.560Z,6.70
2018-03-31T16:52:46.429Z,6.60
2018-03-31T16:55:13.626Z,6.60
2018-03-31T16:57:40.707Z,6.60
2018-03-31T17:00:07.826Z,6.60
2018-03-31T17:02:34.967Z,6.50
2018-03-31T17:05:02.055Z,6.50
2018-03-31T17:07:29.141Z,6.40
2018-03-31T17:09:56.253Z,6.30
2018-03-31T17:12:23.395Z,6.30
2018-03-31T17:14:50.600Z,6.20
2018-03-31T17:17:17.693Z,6.10
2018-03-31T17:19:44.866Z,6.10
2018-03-31T17:22:12.053Z,6.00
2018-03-31T17:24:39.126Z,6.00
2018-03-31T17:27:06.258Z,6.00
2018-03-31T17:29:33.396Z,5.90
2018-03-31T17:32:00.535Z,5.90
2018-03-31T17:34:27.694Z,5.80
2018-03-31T17:36:54.821Z,5.80
2018-03-31T17:39:21.964Z,5.80
2018-03-31T17:41:49.853Z,5.70
2018-03-31T17:44:17.735Z,5.70
2018-03-31T17:46:44.850Z,5.70
2018-03-31T17:49:12.105Z,5.70
2018-03-31T17:51:39.242Z,5.60
2018-03-31T17:54:06.332Z,5.60
2018-03-31T17:56:33.430Z,5.60
2018-03-31T17:59:00.590Z,5.50
2018-03-31T18:01:27.689Z,5.50
2018-03-31T18:03:54.853Z,5.40
2018-03-31T18:06:22.036Z,5.40
2018-03-31T18:08:49.317Z,5.40
2018-03-31T18:11:16.393Z,5.30
2018-03-31T18:13:43.524Z,5.30
2018-03-31T18:16:11.412Z,5.20
2018-03-31T18:18:38.494Z,5.20
2018-03-31T18:21:05.617Z,5.20
2018-03-31T18:23:32.782Z,5.20
2018-03-31T18:26:00.006Z,5.20
2018-03-31T18:28:27.121Z,5.10
2018-03-31T18:30:54.366Z,5.10
2018-03-31T18:33:21.449Z,5.10
2018-03-31T18:35:48.593Z,5.10
2018-03-31T18:38:16.444Z,5.00
2018-03-31T18:40:43.591Z,5.00
2018-03-31T18:43:10.712Z,5.00
2018-03-31T18:45:38.020Z,5.00
2018-03-31T18:48:05.872Z,5.10
2018-03-31T18:50:32.984Z,5.00
2018-03-31T18:53:00.089Z,5.00
2018-03-31T18:55:28.002Z,5.00
2018-03-31T18:57:55.126Z,5.00
2018-03-31T19:00:22.212Z,4.90
2018-03-31T19:02:49.440Z,4.90
2018-03-31T19:05:16.532Z,4.90
2018-03-31T19:07:43.636Z,4.90
2018-03-31T19:10:10.766Z,4.90
2018-03-31T19:12:37.887Z,4.90
2018-03-31T19:15:04.965Z,4.90
2018-03-31T19:17:32.131Z,4.80
2018-03-31T19:19:59.247Z,4.80
2018-03-31T19:22:26.357Z,4.70
2018-03-31T19:24:59.088Z,4.70
2018-03-31T19:27:27.105Z,4.70
2018-03-31T19:29:54.173Z,4.70
2018-03-31T19:32:21.297Z,4.70
2018-03-31T19:34:48.464Z,4.60
2018-03-31T19:37:15.533Z,4.60
2018-03-31T19:39:48.219Z,4.60
2018-03-31T19:42:15.418Z,4.60
2018-03-31T19:44:42.516Z,4.50
2018-03-31T19:47:09.635Z,4.50
2018-03-31T19:49:36.837Z,4.50
2018-03-31T19:52:04.804Z,4.50
2018-03-31T19:54:31.911Z,4.50
2018-03-31T19:56:59.041Z,4.60
2018-03-31T19:59:26.187Z,4.60
2018-03-31T20:01:53.315Z,4.50
2018-03-31T20:04:20.404Z,4.50
2018-03-31T20:06:47.536Z,4.50
2018-03-31T20:09:14.620Z,4.60
2018-03-31T20:11:41.706Z,4.60
2018-03-31T20:14:09.629Z,4.50
2018-03-31T20:16:36.714Z,4.50
2018-03-31T20:19:04.609Z,4.50
2018-03-31T20:21:31.777Z,4.50
2018-03-31T20:23:58.858Z,4.50
2018-03-31T20:26:26.021Z,4.50
2018-03-31T20:28:53.139Z,4.50
2018-03-31T20:31:20.285Z,4.50
2018-03-31T20:33:47.393Z,4.50
2018-03-31T20:36:15.279Z,4.50
2018-03-31T20:38:42.362Z,4.50
2018-03-31T20:41:09.449Z,4.50
2018-03-31T20:43:37.357Z,4.50
2018-03-31T20:46:04.433Z,4.50
2018-03-31T20:48:31.556Z,4.50
2018-03-31T20:50:58.646Z,4.50
2018-03-31T20:53:25.770Z,4.40
2018-03-31T20:55:52.856Z,4.40
2018-03-31T20:58:19.974Z,4.40
2018-03-31T21:00:47.053Z,4.40
2018-03-31T21:03:14.198Z,4.30
2018-03-31T21:05:41.287Z,4.30
2018-03-31T21:08:08.410Z,4.30
2018-03-31T21:10:36.271Z,4.30
2018-03-31T21:13:03.409Z,4.30
2018-03-31T21:15:30.498Z,4.30
2018-03-31T21:17:58.444Z,4.30
2018-03-31T21:20:25.537Z,4.30
2018-03-31T21:22:52.667Z,4.30
2018-03-31T21:25:19.749Z,4.30
2018-03-31T21:27:46.875Z,4.30
2018-03-31T21:30:13.955Z,4.30
2018-03-31T21:32:41.119Z,4.30
2018-03-31T21:35:08.209Z,4.20
2018-03-31T21:37:35.760Z,4.20
2018-03-31T21:40:03.619Z,4.20
2018-03-31T21:42:30.713Z,4.20
2018-03-31T21:44:57.831Z,4.20
2018-03-31T21:47:25.741Z,4.10
2018-03-31T21:49:52.853Z,4.10
2018-03-31T21:52:19.968Z,4.10
2018-03-31T21:54:47.298Z,4.00
2018-03-31T21:57:14.767Z,4.00
2018-03-31T21:59:42.247Z,4.00
2018-03-31T22:02:11.549Z,3.90
2018-03-31T22:04:38.856Z,3.90
2018-03-31T22:07:05.938Z,3.80
2018-03-31T22:09:33.169Z,3.80
2018-03-31T22:12:00.407Z,3.70
2018-03-31T22:14:33.257Z,3.70
2018-03-31T22:17:00.441Z,3.70
2018-03-31T22:19:27.772Z,3.70
2018-03-31T22:21:55.415Z,3.60
2018-03-31T22:24:22.520Z,3.60
2018-03-31T22:26:49.650Z,3.60
2018-03-31T22:29:16.730Z,3.50
2018-03-31T22:31:44.982Z,3.50
2018-03-31T22:34:12.087Z,3.50
2018-03-31T22:36:39.226Z,3.50
2018-03-31T22:39:07.074Z,3.40
2018-03-31T22:41:34.347Z,3.40
2018-03-31T22:44:01.565Z,3.40
2018-03-31T22:46:28.673Z,3.30
2018-03-31T22:48:55.998Z,3.30
2018-03-31T22:51:23.073Z,3.30
2018-03-31T22:53:50.220Z,3.20
2018-03-31T22:56:17.765Z,3.20
2018-03-31T22:58:45.712Z,3.10
2018-03-31T23:01:12.792Z,3.10
2018-03-31T23:03:40.023Z,3.10
2018-03-31T23:06:07.242Z,3.10
2018-03-31T23:08:34.359Z,3.10
2018-03-31T23:11:01.442Z,3.00
2018-03-31T23:13:28.705Z,3.00
2018-03-31T23:15:55.862Z,2.90
2018-03-31T23:18:23.439Z,2.90
2018-03-31T23:20:51.884Z,2.90
2018-03-31T23:23:19.178Z,2.90
2018-03-31T23:25:46.278Z,2.90
2018-03-31T23:28:13.396Z,2.80
2018-03-31T23:30:40.474Z,2.80
2018-03-31T23:33:07.617Z,2.80
2018-03-31T23:35:34.703Z,2.70
2018-03-31T23:38:01.792Z,2.70
2018-03-31T23:40:28.932Z,2.70
2018-03-31T23:42:56.104Z,2.70
2018-03-31T23:45:23.211Z,2.60
2018-03-31T23:47:50.330Z,2.60
2018-03-31T23:50:18.224Z,2.60
2018-03-31T23:52:45.358Z,2.60
2018-03-31T23:55:12.440Z,2.50
2018-03-31T23:57:39.607Z,2.50
